sensor_id;sensor_type;location;lat;lon;timestamp;P1;durP1;ratioP1;P2;durP2;ratioP2
74624;SDS011;63131;52.298;8.056;2023-03-01T00:01:06;16.48;;;5.97;;
74624;SDS011;63131;52.298;8.056;2023-03-01T00:03:33;16.35;;;5.72;;
74624;SDS011;63131;52.298;8.056;2023-03-01T00:05:58;14.15;;;6.13;;
74624;SDS011;63131;52.298;8.056;2023-03-01T00:08:24;14.82;;;6.38;;
74624;SDS011;63131;52.298;8.056;2023-03-01T00:10:59;13.55;;;6.28;;
74624;SDS011;63131;52.298;8.056;2023-03-01T00:13:35;15.38;;;5.85;;
74624;SDS011;63131;52.298;8.056;2023-03-01T00:16:02;14.10;;;6.25;;
74624;SDS011;63131;52.298;8.056;2023-03-01T00:18:32;13.98;;;5.88;;
74624;SDS011;63131;52.298;8.056;2023-03-01T00:20:58;12.13;;;5.05;;
74624;SDS011;63131;52.298;8.056;2023-03-01T00:23:23;12.77;;;4.57;;
74624;SDS011;63131;52.298;8.056;2023-03-01T00:25:49;10.00;;;4.50;;
74624;SDS011;63131;52.298;8.056;2023-03-01T00:28:15;10.98;;;5.13;;
74624;SDS011;63131;52.298;8.056;2023-03-01T00:30:40;11.25;;;4.60;;
74624;SDS011;63131;52.298;8.056;2023-03-01T00:33:06;9.55;;;4.18;;
74624;SDS011;63131;52.298;8.056;2023-03-01T00:35:32;10.75;;;5.07;;
74624;SDS011;63131;52.298;8.056;2023-03-01T00:37:57;10.10;;;5.03;;
74624;SDS011;63131;52.298;8.056;2023-03-01T00:40:26;10.02;;;4.20;;
74624;SDS011;63131;52.298;8.056;2023-03-01T00:42:52;9.15;;;3.70;;
74624;SDS011;63131;52.298;8.056;2023-03-01T00:45:17;10.38;;;5.18;;
74624;SDS011;63131;52.298;8.056;2023-03-01T00:47:43;9.82;;;4.57;;
74624;SDS011;63131;52.298;8.056;2023-03-01T00:50:09;10.52;;;5.00;;
74624;SDS011;63131;52.298;8.056;2023-03-01T00:52:35;12.23;;;4.88;;
74624;SDS011;63131;52.298;8.056;2023-03-01T00:55:00;11.18;;;5.55;;
74624;SDS011;63131;52.298;8.056;2023-03-01T00:57:26;9.65;;;4.63;;
74624;SDS011;63131;52.298;8.056;2023-03-01T00:59:51;15.30;;;5.72;;
74624;SDS011;63131;52.298;8.056;2023-03-01T01:02:17;10.77;;;5.13;;
74624;SDS011;63131;52.298;8.056;2023-03-01T01:04:43;11.43;;;4.88;;
74624;SDS011;63131;52.298;8.056;2023-03-01T01:07:08;12.57;;;5.68;;
74624;SDS011;63131;52.298;8.056;2023-03-01T01:09:33;15.50;;;5.78;;
74624;SDS011;63131;52.298;8.056;2023-03-01T01:11:59;12.18;;;4.47;;
74624;SDS011;63131;52.298;8.056;2023-03-01T01:14:24;10.52;;;4.60;;
74624;SDS011;63131;52.298;8.056;2023-03-01T01:16:49;11.15;;;5.07;;
74624;SDS011;63131;52.298;8.056;2023-03-01T01:19:15;13.98;;;5.63;;
74624;SDS011;63131;52.298;8.056;2023-03-01T01:21:40;12.55;;;5.57;;
74624;SDS011;63131;52.298;8.056;2023-03-01T01:24:08;10.73;;;5.13;;
74624;SDS011;63131;52.298;8.056;2023-03-01T01:26:34;10.75;;;4.57;;
74624;SDS011;63131;52.298;8.056;2023-03-01T01:29:02;12.18;;;5.03;;
74624;SDS011;63131;52.298;8.056;2023-03-01T01:31:29;9.68;;;4.32;;
74624;SDS011;63131;52.298;8.056;2023-03-01T01:33:55;10.88;;;5.13;;
74624;SDS011;63131;52.298;8.056;2023-03-01T01:36:21;10.32;;;4.63;;
74624;SDS011;63131;52.298;8.056;2023-03-01T01:38:47;8.80;;;4.50;;
74624;SDS011;63131;52.298;8.056;2023-03-01T01:41:12;10.95;;;4.75;;
74624;SDS011;63131;52.298;8.056;2023-03-01T01:43:49;11.82;;;5.15;;
74624;SDS011;63131;52.298;8.056;2023-03-01T01:46:33;10.93;;;5.10;;
74624;SDS011;63131;52.298;8.056;2023-03-01T01:49:03;11.07;;;4.70;;
74624;SDS011;63131;52.298;8.056;2023-03-01T01:51:37;9.38;;;4.70;;
74624;SDS011;63131;52.298;8.056;2023-03-01T01:54:47;10.07;;;4.75;;
74624;SDS011;63131;52.298;8.056;2023-03-01T01:57:00;10.57;;;4.88;;
74624;SDS011;63131;52.298;8.056;2023-03-01T01:59:27;10.95;;;4.55;;
74624;SDS011;63131;52.298;8.056;2023-03-01T02:01:53;12.73;;;4.30;;
74624;SDS011;63131;52.298;8.056;2023-03-01T02:04:19;11.27;;;5.03;;
74624;SDS011;63131;52.298;8.056;2023-03-01T02:06:51;10.35;;;5.10;;
74624;SDS011;63131;52.298;8.056;2023-03-01T02:09:21;11.10;;;5.07;;
74624;SDS011;63131;52.298;8.056;2023-03-01T02:11:48;10.75;;;4.95;;
74624;SDS011;63131;52.298;8.056;2023-03-01T02:14:14;13.10;;;5.25;;
74624;SDS011;63131;52.298;8.056;2023-03-01T02:16:40;12.30;;;4.95;;
74624;SDS011;63131;52.298;8.056;2023-03-01T02:19:06;11.63;;;5.18;;
74624;SDS011;63131;52.298;8.056;2023-03-01T02:24:21;11.25;;;5.18;;
74624;SDS011;63131;52.298;8.056;2023-03-01T02:26:54;14.07;;;5.05;;
74624;SDS011;63131;52.298;8.056;2023-03-01T02:29:23;11.80;;;5.38;;
74624;SDS011;63131;52.298;8.056;2023-03-01T02:31:49;11.10;;;4.90;;
74624;SDS011;63131;52.298;8.056;2023-03-01T02:34:23;11.18;;;4.50;;
74624;SDS011;63131;52.298;8.056;2023-03-01T02:39:46;10.38;;;4.53;;
74624;SDS011;63131;52.298;8.056;2023-03-01T02:42:15;11.15;;;4.30;;
74624;SDS011;63131;52.298;8.056;2023-03-01T02:44:43;9.57;;;4.50;;
74624;SDS011;63131;52.298;8.056;2023-03-01T02:47:08;10.00;;;4.30;;
74624;SDS011;63131;52.298;8.056;2023-03-01T02:49:35;9.68;;;4.70;;
74624;SDS011;63131;52.298;8.056;2023-03-01T02:54:33;9.98;;;4.80;;
74624;SDS011;63131;52.298;8.056;2023-03-01T02:57:04;10.15;;;4.47;;
74624;SDS011;63131;52.298;8.056;2023-03-01T02:59:31;11.02;;;4.72;;
74624;SDS011;63131;52.298;8.056;2023-03-01T03:02:04;11.75;;;4.45;;
74624;SDS011;63131;52.298;8.056;2023-03-01T03:04:29;10.13;;;4.97;;
74624;SDS011;63131;52.298;8.056;2023-03-01T03:06:54;10.02;;;5.10;;
74624;SDS011;63131;52.298;8.056;2023-03-01T03:09:20;12.18;;;5.03;;
74624;SDS011;63131;52.298;8.056;2023-03-01T03:11:45;11.13;;;4.97;;
74624;SDS011;63131;52.298;8.056;2023-03-01T03:14:12;10.73;;;4.90;;
74624;SDS011;63131;52.298;8.056;2023-03-01T03:16:42;10.98;;;5.32;;
74624;SDS011;63131;52.298;8.056;2023-03-01T03:19:09;13.98;;;5.53;;
74624;SDS011;63131;52.298;8.056;2023-03-01T03:21:35;11.50;;;4.45;;
74624;SDS011;63131;52.298;8.056;2023-03-01T03:24:00;13.38;;;5.10;;
74624;SDS011;63131;52.298;8.056;2023-03-01T03:26:26;11.20;;;5.38;;
74624;SDS011;63131;52.298;8.056;2023-03-01T03:28:51;10.60;;;5.25;;
74624;SDS011;63131;52.298;8.056;2023-03-01T03:31:17;12.52;;;4.95;;
74624;SDS011;63131;52.298;8.056;2023-03-01T03:33:42;10.98;;;4.55;;
74624;SDS011;63131;52.298;8.056;2023-03-01T03:36:07;10.70;;;4.80;;
74624;SDS011;63131;52.298;8.056;2023-03-01T03:38:37;9.88;;;4.63;;
74624;SDS011;63131;52.298;8.056;2023-03-01T03:41:04;12.30;;;4.65;;
74624;SDS011;63131;52.298;8.056;2023-03-01T03:43:32;11.27;;;4.55;;
74624;SDS011;63131;52.298;8.056;2023-03-01T03:45:59;11.43;;;4.47;;
74624;SDS011;63131;52.298;8.056;2023-03-01T03:48:25;10.23;;;5.18;;
74624;SDS011;63131;52.298;8.056;2023-03-01T03:50:54;10.13;;;4.47;;
74624;SDS011;63131;52.298;8.056;2023-03-01T03:53:21;9.45;;;3.88;;
74624;SDS011;63131;52.298;8.056;2023-03-01T03:55:48;9.57;;;4.63;;
74624;SDS011;63131;52.298;8.056;2023-03-01T03:58:16;9.07;;;4.20;;
74624;SDS011;63131;52.298;8.056;2023-03-01T04:00:45;9.80;;;3.75;;
74624;SDS011;63131;52.298;8.056;2023-03-01T04:03:12;8.95;;;3.90;;
74624;SDS011;63131;52.298;8.056;2023-03-01T04:05:39;9.10;;;4.35;;
74624;SDS011;63131;52.298;8.056;2023-03-01T04:08:05;10.45;;;4.78;;
74624;SDS011;63131;52.298;8.056;2023-03-01T04:10:56;9.15;;;3.53;;
74624;SDS011;63131;52.298;8.056;2023-03-01T04:13:19;9.70;;;4.63;;
74624;SDS011;63131;52.298;8.056;2023-03-01T04:15:49;10.52;;;4.97;;
74624;SDS011;63131;52.298;8.056;2023-03-01T04:18:16;10.55;;;3.70;;
74624;SDS011;63131;52.298;8.056;2023-03-01T04:20:43;10.27;;;4.82;;
74624;SDS011;63131;52.298;8.056;2023-03-01T04:23:11;11.85;;;4.50;;
74624;SDS011;63131;52.298;8.056;2023-03-01T04:25:45;9.07;;;4.20;;
74624;SDS011;63131;52.298;8.056;2023-03-01T04:28:21;12.85;;;3.97;;
74624;SDS011;63131;52.298;8.056;2023-03-01T04:30:49;12.35;;;5.15;;
74624;SDS011;63131;52.298;8.056;2023-03-01T04:33:14;10.68;;;4.82;;
74624;SDS011;63131;52.298;8.056;2023-03-01T04:35:39;11.15;;;4.43;;
74624;SDS011;63131;52.298;8.056;2023-03-01T04:38:05;9.48;;;4.43;;
74624;SDS011;63131;52.298;8.056;2023-03-01T04:40:31;9.52;;;3.75;;
74624;SDS011;63131;52.298;8.056;2023-03-01T04:42:56;10.38;;;4.45;;
74624;SDS011;63131;52.298;8.056;2023-03-01T04:45:22;12.27;;;4.53;;
74624;SDS011;63131;52.298;8.056;2023-03-01T04:47:47;12.00;;;5.50;;
74624;SDS011;63131;52.298;8.056;2023-03-01T04:50:14;10.15;;;4.88;;
74624;SDS011;63131;52.298;8.056;2023-03-01T04:52:40;9.13;;;3.92;;
74624;SDS011;63131;52.298;8.056;2023-03-01T04:55:06;12.95;;;5.97;;
74624;SDS011;63131;52.298;8.056;2023-03-01T04:57:33;9.45;;;4.85;;
74624;SDS011;63131;52.298;8.056;2023-03-01T04:59:58;10.35;;;4.47;;
74624;SDS011;63131;52.298;8.056;2023-03-01T05:02:24;10.98;;;4.85;;
74624;SDS011;63131;52.298;8.056;2023-03-01T05:04:49;13.65;;;5.65;;
74624;SDS011;63131;52.298;8.056;2023-03-01T05:07:14;11.68;;;4.93;;
74624;SDS011;63131;52.298;8.056;2023-03-01T05:09:44;9.60;;;4.53;;
74624;SDS011;63131;52.298;8.056;2023-03-01T05:12:12;9.07;;;4.15;;
74624;SDS011;63131;52.298;8.056;2023-03-01T05:14:38;9.02;;;4.43;;
74624;SDS011;63131;52.298;8.056;2023-03-01T05:17:04;12.13;;;4.43;;
74624;SDS011;63131;52.298;8.056;2023-03-01T05:19:30;9.43;;;4.60;;
74624;SDS011;63131;52.298;8.056;2023-03-01T05:21:56;8.75;;;3.97;;
74624;SDS011;63131;52.298;8.056;2023-03-01T05:24:31;10.73;;;4.80;;
74624;SDS011;63131;52.298;8.056;2023-03-01T05:26:59;8.57;;;4.45;;
74624;SDS011;63131;52.298;8.056;2023-03-01T05:29:25;12.13;;;4.13;;
74624;SDS011;63131;52.298;8.056;2023-03-01T05:31:52;9.95;;;4.20;;
74624;SDS011;63131;52.298;8.056;2023-03-01T05:34:19;9.10;;;4.72;;
74624;SDS011;63131;52.298;8.056;2023-03-01T05:36:48;9.23;;;4.25;;
74624;SDS011;63131;52.298;8.056;2023-03-01T05:39:13;13.07;;;4.53;;
74624;SDS011;63131;52.298;8.056;2023-03-01T05:41:38;11.32;;;4.93;;
74624;SDS011;63131;52.298;8.056;2023-03-01T05:44:06;9.80;;;4.65;;
74624;SDS011;63131;52.298;8.056;2023-03-01T05:46:31;10.13;;;4.80;;
74624;SDS011;63131;52.298;8.056;2023-03-01T05:48:57;10.88;;;4.43;;
74624;SDS011;63131;52.298;8.056;2023-03-01T05:51:22;11.98;;;4.95;;
74624;SDS011;63131;52.298;8.056;2023-03-01T05:53:47;10.25;;;4.72;;
74624;SDS011;63131;52.298;8.056;2023-03-01T05:56:13;11.73;;;5.35;;
74624;SDS011;63131;52.298;8.056;2023-03-01T05:58:38;9.73;;;4.78;;
74624;SDS011;63131;52.298;8.056;2023-03-01T06:01:03;9.18;;;3.90;;
74624;SDS011;63131;52.298;8.056;2023-03-01T06:03:29;10.85;;;4.50;;
74624;SDS011;63131;52.298;8.056;2023-03-01T06:05:57;12.32;;;4.93;;
74624;SDS011;63131;52.298;8.056;2023-03-01T06:08:23;11.35;;;4.50;;
74624;SDS011;63131;52.298;8.056;2023-03-01T06:10:55;12.05;;;4.60;;
74624;SDS011;63131;52.298;8.056;2023-03-01T06:13:30;10.70;;;5.15;;
74624;SDS011;63131;52.298;8.056;2023-03-01T06:15:58;10.73;;;4.35;;
74624;SDS011;63131;52.298;8.056;2023-03-01T06:18:26;11.23;;;4.68;;
74624;SDS011;63131;52.298;8.056;2023-03-01T06:20:55;10.23;;;4.68;;
74624;SDS011;63131;52.298;8.056;2023-03-01T06:23:21;10.55;;;5.00;;
74624;SDS011;63131;52.298;8.056;2023-03-01T06:25:47;11.70;;;5.13;;
74624;SDS011;63131;52.298;8.056;2023-03-01T06:28:12;9.93;;;4.63;;
74624;SDS011;63131;52.298;8.056;2023-03-01T06:30:37;9.88;;;4.75;;
74624;SDS011;63131;52.298;8.056;2023-03-01T06:33:03;9.30;;;4.30;;
74624;SDS011;63131;52.298;8.056;2023-03-01T06:35:28;10.90;;;4.65;;
74624;SDS011;63131;52.298;8.056;2023-03-01T06:37:56;11.57;;;4.90;;
74624;SDS011;63131;52.298;8.056;2023-03-01T06:40:22;9.80;;;4.38;;
74624;SDS011;63131;52.298;8.056;2023-03-01T06:42:48;9.95;;;4.55;;
74624;SDS011;63131;52.298;8.056;2023-03-01T06:45:14;11.63;;;5.05;;
74624;SDS011;63131;52.298;8.056;2023-03-01T06:47:39;11.82;;;5.35;;
74624;SDS011;63131;52.298;8.056;2023-03-01T06:50:05;10.40;;;4.95;;
74624;SDS011;63131;52.298;8.056;2023-03-01T06:52:31;9.75;;;4.63;;
74624;SDS011;63131;52.298;8.056;2023-03-01T06:54:56;10.25;;;4.75;;
74624;SDS011;63131;52.298;8.056;2023-03-01T06:57:21;9.73;;;4.85;;
74624;SDS011;63131;52.298;8.056;2023-03-01T06:59:47;13.30;;;5.72;;
74624;SDS011;63131;52.298;8.056;2023-03-01T07:02:13;12.00;;;5.72;;
74624;SDS011;63131;52.298;8.056;2023-03-01T07:04:38;11.25;;;5.30;;
74624;SDS011;63131;52.298;8.056;2023-03-01T07:07:04;11.25;;;5.43;;
74624;SDS011;63131;52.298;8.056;2023-03-01T07:09:29;11.85;;;5.22;;
74624;SDS011;63131;52.298;8.056;2023-03-01T07:11:55;11.20;;;5.15;;
74624;SDS011;63131;52.298;8.056;2023-03-01T07:14:21;11.88;;;6.05;;
74624;SDS011;63131;52.298;8.056;2023-03-01T07:16:49;11.45;;;5.50;;
74624;SDS011;63131;52.298;8.056;2023-03-01T07:19:14;12.23;;;5.63;;
74624;SDS011;63131;52.298;8.056;2023-03-01T07:21:40;13.73;;;6.80;;
74624;SDS011;63131;52.298;8.056;2023-03-01T07:24:09;15.70;;;6.72;;
74624;SDS011;63131;52.298;8.056;2023-03-01T07:26:35;15.30;;;7.53;;
74624;SDS011;63131;52.298;8.056;2023-03-01T07:29:01;18.55;;;8.10;;
74624;SDS011;63131;52.298;8.056;2023-03-01T07:31:28;17.67;;;7.95;;
74624;SDS011;63131;52.298;8.056;2023-03-01T07:33:54;18.38;;;7.65;;
74624;SDS011;63131;52.298;8.056;2023-03-01T07:36:23;16.17;;;7.60;;
74624;SDS011;63131;52.298;8.056;2023-03-01T07:38:49;15.35;;;6.95;;
74624;SDS011;63131;52.298;8.056;2023-03-01T07:41:15;13.35;;;6.68;;
74624;SDS011;63131;52.298;8.056;2023-03-01T07:43:40;15.43;;;7.43;;
74624;SDS011;63131;52.298;8.056;2023-03-01T07:46:06;14.93;;;7.43;;
74624;SDS011;63131;52.298;8.056;2023-03-01T07:48:32;14.50;;;6.95;;
74624;SDS011;63131;52.298;8.056;2023-03-01T07:50:58;14.15;;;7.10;;
74624;SDS011;63131;52.298;8.056;2023-03-01T07:53:24;13.15;;;6.82;;
74624;SDS011;63131;52.298;8.056;2023-03-01T07:55:50;15.85;;;7.00;;
74624;SDS011;63131;52.298;8.056;2023-03-01T07:58:18;13.20;;;7.85;;
74624;SDS011;63131;52.298;8.056;2023-03-01T08:00:44;13.77;;;7.78;;
74624;SDS011;63131;52.298;8.056;2023-03-01T08:03:10;14.48;;;8.40;;
74624;SDS011;63131;52.298;8.056;2023-03-01T08:05:35;14.20;;;7.90;;
74624;SDS011;63131;52.298;8.056;2023-03-01T08:08:00;15.95;;;9.63;;
74624;SDS011;63131;52.298;8.056;2023-03-01T08:10:28;15.43;;;9.23;;
74624;SDS011;63131;52.298;8.056;2023-03-01T08:12:54;16.13;;;9.10;;
74624;SDS011;63131;52.298;8.056;2023-03-01T08:15:19;17.90;;;9.10;;
74624;SDS011;63131;52.298;8.056;2023-03-01T08:17:45;15.20;;;9.38;;
74624;SDS011;63131;52.298;8.056;2023-03-01T08:20:10;17.35;;;9.50;;
74624;SDS011;63131;52.298;8.056;2023-03-01T08:22:37;15.85;;;8.80;;
74624;SDS011;63131;52.298;8.056;2023-03-01T08:25:03;17.73;;;9.45;;
74624;SDS011;63131;52.298;8.056;2023-03-01T08:27:28;16.63;;;8.75;;
74624;SDS011;63131;52.298;8.056;2023-03-01T08:29:54;17.73;;;8.73;;
74624;SDS011;63131;52.298;8.056;2023-03-01T08:32:19;16.58;;;9.25;;
74624;SDS011;63131;52.298;8.056;2023-03-01T08:34:48;15.65;;;8.73;;
74624;SDS011;63131;52.298;8.056;2023-03-01T08:37:13;15.77;;;9.82;;
74624;SDS011;63131;52.298;8.056;2023-03-01T08:39:39;15.50;;;8.48;;
74624;SDS011;63131;52.298;8.056;2023-03-01T08:42:04;15.18;;;8.82;;
74624;SDS011;63131;52.298;8.056;2023-03-01T08:44:29;15.38;;;7.57;;
74624;SDS011;63131;52.298;8.056;2023-03-01T08:46:55;15.27;;;7.60;;
74624;SDS011;63131;52.298;8.056;2023-03-01T08:49:20;14.30;;;6.40;;
74624;SDS011;63131;52.298;8.056;2023-03-01T08:51:46;13.70;;;7.03;;
74624;SDS011;63131;52.298;8.056;2023-03-01T08:54:14;12.65;;;6.43;;
74624;SDS011;63131;52.298;8.056;2023-03-01T08:56:41;12.23;;;5.45;;
74624;SDS011;63131;52.298;8.056;2023-03-01T08:59:07;10.70;;;4.68;;
74624;SDS011;63131;52.298;8.056;2023-03-01T09:01:33;11.90;;;4.88;;
74624;SDS011;63131;52.298;8.056;2023-03-01T09:03:58;12.18;;;4.57;;
74624;SDS011;63131;52.298;8.056;2023-03-01T09:06:24;11.15;;;4.45;;
74624;SDS011;63131;52.298;8.056;2023-03-01T09:08:50;11.40;;;4.32;;
74624;SDS011;63131;52.298;8.056;2023-03-01T09:11:17;10.05;;;3.65;;
74624;SDS011;63131;52.298;8.056;2023-03-01T09:13:45;12.30;;;3.58;;
74624;SDS011;63131;52.298;8.056;2023-03-01T09:16:12;8.63;;;3.42;;
74624;SDS011;63131;52.298;8.056;2023-03-01T09:18:38;10.10;;;4.22;;
74624;SDS011;63131;52.298;8.056;2023-03-01T09:21:05;8.55;;;4.07;;
74624;SDS011;63131;52.298;8.056;2023-03-01T09:23:44;8.70;;;4.13;;
74624;SDS011;63131;52.298;8.056;2023-03-01T09:26:12;9.32;;;4.22;;
74624;SDS011;63131;52.298;8.056;2023-03-01T09:28:39;9.93;;;3.97;;
74624;SDS011;63131;52.298;8.056;2023-03-01T09:33:31;9.18;;;3.60;;
74624;SDS011;63131;52.298;8.056;2023-03-01T09:35:58;10.38;;;4.07;;
74624;SDS011;63131;52.298;8.056;2023-03-01T09:38:25;11.60;;;4.57;;
74624;SDS011;63131;52.298;8.056;2023-03-01T09:40:50;10.32;;;3.95;;
74624;SDS011;63131;52.298;8.056;2023-03-01T09:43:27;11.00;;;4.28;;
74624;SDS011;63131;52.298;8.056;2023-03-01T09:45:59;7.53;;;3.55;;
74624;SDS011;63131;52.298;8.056;2023-03-01T09:48:28;9.02;;;3.85;;
74624;SDS011;63131;52.298;8.056;2023-03-01T09:50:58;9.38;;;3.40;;
74624;SDS011;63131;52.298;8.056;2023-03-01T09:53:31;7.43;;;3.15;;
74624;SDS011;63131;52.298;8.056;2023-03-01T10:01:28;8.45;;;3.10;;
74624;SDS011;63131;52.298;8.056;2023-03-01T10:04:10;7.93;;;3.03;;
74624;SDS011;63131;52.298;8.056;2023-03-01T10:09:36;13.50;;;4.57;;
74624;SDS011;63131;52.298;8.056;2023-03-01T10:12:04;11.15;;;3.78;;
74624;SDS011;63131;52.298;8.056;2023-03-01T10:17:11;10.23;;;3.70;;
74624;SDS011;63131;52.298;8.056;2023-03-01T10:19:41;8.80;;;3.58;;
74624;SDS011;63131;52.298;8.056;2023-03-01T10:24:42;9.20;;;3.38;;
74624;SDS011;63131;52.298;8.056;2023-03-01T10:27:22;9.80;;;4.28;;
74624;SDS011;63131;52.298;8.056;2023-03-01T10:32:31;10.23;;;4.22;;
74624;SDS011;63131;52.298;8.056;2023-03-01T10:34:57;11.70;;;4.05;;
74624;SDS011;63131;52.298;8.056;2023-03-01T10:37:23;8.93;;;3.58;;
74624;SDS011;63131;52.298;8.056;2023-03-01T10:40:03;9.38;;;3.90;;
74624;SDS011;63131;52.298;8.056;2023-03-01T10:42:34;10.23;;;3.42;;
74624;SDS011;63131;52.298;8.056;2023-03-01T10:48:05;12.23;;;4.68;;
74624;SDS011;63131;52.298;8.056;2023-03-01T10:51:14;10.25;;;3.53;;
74624;SDS011;63131;52.298;8.056;2023-03-01T10:53:38;10.40;;;4.55;;
74624;SDS011;63131;52.298;8.056;2023-03-01T10:56:07;11.18;;;4.00;;
74624;SDS011;63131;52.298;8.056;2023-03-01T10:58:35;9.63;;;4.40;;
74624;SDS011;63131;52.298;8.056;2023-03-01T11:01:06;9.50;;;4.40;;
74624;SDS011;63131;52.298;8.056;2023-03-01T11:03:52;15.23;;;5.22;;
74624;SDS011;63131;52.298;8.056;2023-03-01T11:06:30;9.10;;;4.50;;
74624;SDS011;63131;52.298;8.056;2023-03-01T11:08:55;10.43;;;4.70;;
74624;SDS011;63131;52.298;8.056;2023-03-01T11:11:31;9.25;;;3.67;;
74624;SDS011;63131;52.298;8.056;2023-03-01T11:13:59;9.80;;;4.15;;
74624;SDS011;63131;52.298;8.056;2023-03-01T11:16:34;7.47;;;3.60;;
74624;SDS011;63131;52.298;8.056;2023-03-01T11:24:11;10.70;;;3.83;;
74624;SDS011;63131;52.298;8.056;2023-03-01T11:26:39;11.30;;;4.18;;
74624;SDS011;63131;52.298;8.056;2023-03-01T11:29:16;10.68;;;4.40;;
74624;SDS011;63131;52.298;8.056;2023-03-01T11:31:46;7.93;;;3.10;;
74624;SDS011;63131;52.298;8.056;2023-03-01T11:34:13;8.02;;;3.40;;
74624;SDS011;63131;52.298;8.056;2023-03-01T11:36:52;8.48;;;3.67;;
74624;SDS011;63131;52.298;8.056;2023-03-01T11:44:35;9.98;;;3.40;;
74624;SDS011;63131;52.298;8.056;2023-03-01T11:52:44;7.45;;;3.47;;
74624;SDS011;63131;52.298;8.056;2023-03-01T12:01:02;9.98;;;3.22;;
74624;SDS011;63131;52.298;8.056;2023-03-01T12:36:29;8.10;;;2.63;;
74624;SDS011;63131;52.298;8.056;2023-03-01T12:47:38;7.70;;;2.53;;
74624;SDS011;63131;52.298;8.056;2023-03-01T12:50:26;7.85;;;2.63;;
74624;SDS011;63131;52.298;8.056;2023-03-01T12:52:57;8.75;;;3.47;;
74624;SDS011;63131;52.298;8.056;2023-03-01T12:55:28;9.00;;;3.17;;
74624;SDS011;63131;52.298;8.056;2023-03-01T13:00:38;10.45;;;3.95;;
74624;SDS011;63131;52.298;8.056;2023-03-01T13:11:52;8.25;;;2.65;;
74624;SDS011;63131;52.298;8.056;2023-03-01T13:14:34;6.70;;;2.17;;
74624;SDS011;63131;52.298;8.056;2023-03-01T13:17:00;7.47;;;2.78;;
74624;SDS011;63131;52.298;8.056;2023-03-01T13:19:26;6.47;;;2.38;;
74624;SDS011;63131;52.298;8.056;2023-03-01T13:21:57;6.10;;;2.65;;
74624;SDS011;63131;52.298;8.056;2023-03-01T13:24:39;6.45;;;2.17;;
74624;SDS011;63131;52.298;8.056;2023-03-01T13:29:42;7.17;;;2.40;;
74624;SDS011;63131;52.298;8.056;2023-03-01T13:32:31;7.82;;;2.38;;
74624;SDS011;63131;52.298;8.056;2023-03-01T13:34:59;8.18;;;2.63;;
74624;SDS011;63131;52.298;8.056;2023-03-01T13:37:38;6.30;;;2.28;;
74624;SDS011;63131;52.298;8.056;2023-03-01T13:40:07;7.65;;;2.17;;
74624;SDS011;63131;52.298;8.056;2023-03-01T13:42:58;7.35;;;2.78;;
74624;SDS011;63131;52.298;8.056;2023-03-01T13:46:21;6.90;;;2.63;;
74624;SDS011;63131;52.298;8.056;2023-03-01T13:48:51;6.28;;;2.22;;
74624;SDS011;63131;52.298;8.056;2023-03-01T13:51:25;8.35;;;2.00;;
74624;SDS011;63131;52.298;8.056;2023-03-01T13:53:52;7.68;;;2.50;;
74624;SDS011;63131;52.298;8.056;2023-03-01T13:56:24;9.15;;;4.72;;
74624;SDS011;63131;52.298;8.056;2023-03-01T13:58:55;8.23;;;3.30;;
74624;SDS011;63131;52.298;8.056;2023-03-01T14:01:28;7.05;;;2.55;;
74624;SDS011;63131;52.298;8.056;2023-03-01T14:03:54;6.82;;;3.00;;
74624;SDS011;63131;52.298;8.056;2023-03-01T14:06:24;7.82;;;2.30;;
74624;SDS011;63131;52.298;8.056;2023-03-01T14:08:51;8.40;;;2.28;;
74624;SDS011;63131;52.298;8.056;2023-03-01T14:14:12;7.32;;;2.38;;
74624;SDS011;63131;52.298;8.056;2023-03-01T14:16:52;8.52;;;2.80;;
74624;SDS011;63131;52.298;8.056;2023-03-01T14:19:29;6.68;;;2.38;;
74624;SDS011;63131;52.298;8.056;2023-03-01T14:21:58;5.72;;;2.17;;
74624;SDS011;63131;52.298;8.056;2023-03-01T14:24:30;9.35;;;2.53;;
74624;SDS011;63131;52.298;8.056;2023-03-01T14:26:58;7.35;;;2.47;;
74624;SDS011;63131;52.298;8.056;2023-03-01T14:29:36;7.40;;;2.78;;
74624;SDS011;63131;52.298;8.056;2023-03-01T14:32:18;7.40;;;2.30;;
74624;SDS011;63131;52.298;8.056;2023-03-01T14:34:47;6.70;;;2.33;;
74624;SDS011;63131;52.298;8.056;2023-03-01T14:39:53;7.25;;;2.80;;
74624;SDS011;63131;52.298;8.056;2023-03-01T14:42:20;7.15;;;2.00;;
74624;SDS011;63131;52.298;8.056;2023-03-01T14:44:48;7.40;;;3.03;;
74624;SDS011;63131;52.298;8.056;2023-03-01T14:47:18;7.63;;;2.97;;
74624;SDS011;63131;52.298;8.056;2023-03-01T14:49:51;6.88;;;2.53;;
74624;SDS011;63131;52.298;8.056;2023-03-01T14:52:21;7.10;;;2.28;;
74624;SDS011;63131;52.298;8.056;2023-03-01T14:54:50;8.40;;;2.95;;
74624;SDS011;63131;52.298;8.056;2023-03-01T14:57:21;6.72;;;2.03;;
74624;SDS011;63131;52.298;8.056;2023-03-01T14:59:48;8.55;;;2.53;;
74624;SDS011;63131;52.298;8.056;2023-03-01T15:02:16;7.50;;;2.33;;
74624;SDS011;63131;52.298;8.056;2023-03-01T15:04:48;7.43;;;2.63;;
74624;SDS011;63131;52.298;8.056;2023-03-01T15:07:15;7.85;;;2.65;;
74624;SDS011;63131;52.298;8.056;2023-03-01T15:09:41;8.00;;;2.60;;
74624;SDS011;63131;52.298;8.056;2023-03-01T15:17:55;5.63;;;2.08;;
74624;SDS011;63131;52.298;8.056;2023-03-01T15:20:22;10.23;;;2.45;;
74624;SDS011;63131;52.298;8.056;2023-03-01T15:22:51;5.07;;;1.75;;
74624;SDS011;63131;52.298;8.056;2023-03-01T15:25:21;6.25;;;2.10;;
74624;SDS011;63131;52.298;8.056;2023-03-01T15:27:49;7.82;;;2.38;;
74624;SDS011;63131;52.298;8.056;2023-03-01T15:30:17;4.50;;;1.60;;
74624;SDS011;63131;52.298;8.056;2023-03-01T15:32:46;6.15;;;1.80;;
74624;SDS011;63131;52.298;8.056;2023-03-01T15:38:03;6.55;;;1.75;;
74624;SDS011;63131;52.298;8.056;2023-03-01T15:40:29;6.50;;;2.03;;
74624;SDS011;63131;52.298;8.056;2023-03-01T15:43:02;6.10;;;2.05;;
74624;SDS011;63131;52.298;8.056;2023-03-01T15:45:29;5.68;;;1.92;;
74624;SDS011;63131;52.298;8.056;2023-03-01T15:47:56;5.13;;;1.75;;
74624;SDS011;63131;52.298;8.056;2023-03-01T15:50:27;6.03;;;1.90;;
74624;SDS011;63131;52.298;8.056;2023-03-01T15:52:54;5.85;;;1.67;;
74624;SDS011;63131;52.298;8.056;2023-03-01T15:55:21;6.40;;;1.90;;
74624;SDS011;63131;52.298;8.056;2023-03-01T15:57:49;5.47;;;1.83;;
74624;SDS011;63131;52.298;8.056;2023-03-01T16:00:15;7.95;;;2.40;;
74624;SDS011;63131;52.298;8.056;2023-03-01T16:02:42;7.13;;;2.53;;
74624;SDS011;63131;52.298;8.056;2023-03-01T16:05:30;6.10;;;1.83;;
74624;SDS011;63131;52.298;8.056;2023-03-01T16:07:55;6.45;;;2.30;;
74624;SDS011;63131;52.298;8.056;2023-03-01T16:10:21;4.82;;;1.90;;
74624;SDS011;63131;52.298;8.056;2023-03-01T16:12:47;7.50;;;2.42;;
74624;SDS011;63131;52.298;8.056;2023-03-01T16:15:17;5.78;;;2.38;;
74624;SDS011;63131;52.298;8.056;2023-03-01T16:17:44;7.97;;;2.63;;
74624;SDS011;63131;52.298;8.056;2023-03-01T16:20:09;6.78;;;2.10;;
74624;SDS011;63131;52.298;8.056;2023-03-01T16:22:35;7.72;;;2.67;;
74624;SDS011;63131;52.298;8.056;2023-03-01T16:25:00;7.18;;;2.35;;
74624;SDS011;63131;52.298;8.056;2023-03-01T16:27:27;8.75;;;2.72;;
74624;SDS011;63131;52.298;8.056;2023-03-01T16:29:52;6.82;;;2.38;;
74624;SDS011;63131;52.298;8.056;2023-03-01T16:32:18;8.18;;;2.42;;
74624;SDS011;63131;52.298;8.056;2023-03-01T16:34:43;6.78;;;2.33;;
74624;SDS011;63131;52.298;8.056;2023-03-01T16:37:08;6.40;;;2.10;;
74624;SDS011;63131;52.298;8.056;2023-03-01T16:39:34;6.78;;;2.75;;
74624;SDS011;63131;52.298;8.056;2023-03-01T16:42:00;9.27;;;2.83;;
74624;SDS011;63131;52.298;8.056;2023-03-01T16:44:26;8.63;;;2.50;;
74624;SDS011;63131;52.298;8.056;2023-03-01T16:46:51;8.43;;;2.88;;
74624;SDS011;63131;52.298;8.056;2023-03-01T16:49:16;6.82;;;2.75;;